Time;durP1;ratioP1;P1;durP2;ratioP2;P2;SDS_P1;SDS_P2;PMS_P1;PMS_P2;Temp;Humidity;BMP_temperature;BMP_pressure;BME280_temperature;BME280_humidity;BME280_pressure;Samples;Min_cycle;Max_cycle;Signal;HPM_P1;HPM_P2
2022/08/31 00:04:45;;;;;;;3.40;2.78;;;18.30;99.90;;;;;;4994683;28;20506;-51
2022/08/31 00:07:11;;;;;;;9.18;2.90;;;18.20;99.90;;;;;;4995440;28;20034;-51
2022/08/31 00:09:36;;;;;;;5.93;2.60;;;18.20;99.90;;;;;;4995048;28;20069;-52
2022/08/31 00:12:02;;;;;;;5.22;2.88;;;18.10;99.90;;;;;;4995008;28;20019;-51
2022/08/31 00:14:28;;;;;;;3.15;2.65;;;18.10;99.90;;;;;;4994583;28;20583;-51
2022/08/31 00:16:54;;;;;;;7.50;2.85;;;18.20;99.90;;;;;;4994353;28;20038;-52
2022/08/31 00:19:20;;;;;;;5.78;3.10;;;18.20;99.90;;;;;;4995052;28;20058;-52
2022/08/31 00:21:45;;;;;;;4.75;3.22;;;18.20;99.90;;;;;;4994833;28;20105;-52
2022/08/31 00:24:13;;;;;;;8.43;3.28;;;18.10;99.90;;;;;;4994486;28;20041;-51
2022/08/31 00:26:39;;;;;;;4.88;3.03;;;18.10;99.90;;;;;;4994178;28;20030;-51
2022/08/31 00:29:05;;;;;;;8.60;3.15;;;18.10;99.90;;;;;;4994520;28;20022;-51
2022/08/31 00:31:30;;;;;;;11.73;3.00;;;18.00;99.90;;;;;;4994517;28;20026;-51
2022/08/31 00:33:56;;;;;;;6.22;2.67;;;18.10;99.90;;;;;;4994481;28;20037;-51
2022/08/31 00:36:24;;;;;;;6.82;3.58;;;18.10;99.90;;;;;;4993955;28;20034;-51
2022/08/31 00:38:50;;;;;;;6.15;2.88;;;18.10;99.90;;;;;;4993961;28;20113;-51
2022/08/31 00:41:19;;;;;;;4.05;3.22;;;18.10;99.90;;;;;;4994051;28;20037;-51
2022/08/31 00:43:52;;;;;;;5.13;3.38;;;18.00;99.90;;;;;;4993881;28;20030;-51
2022/08/31 00:46:22;;;;;;;6.38;3.15;;;18.10;99.90;;;;;;4993862;28;20399;-51
2022/08/31 00:49:17;;;;;;;6.25;3.60;;;18.10;99.90;;;;;;4994461;28;20034;-51
2022/08/31 00:51:53;;;;;;;6.80;2.90;;;18.10;99.90;;;;;;4994115;28;20484;-51
2022/08/31 00:54:25;;;;;;;6.38;3.30;;;18.10;99.90;;;;;;4994147;28;20025;-51
2022/08/31 00:56:52;;;;;;;3.90;3.47;;;18.00;99.90;;;;;;4993899;28;20105;-52
2022/08/31 00:59:19;;;;;;;9.48;3.65;;;18.10;99.90;;;;;;4994291;28;20023;-52
2022/08/31 01:01:45;;;;;;;5.15;3.75;;;18.00;99.90;;;;;;4993723;28;20031;-52
2022/08/31 01:04:11;;;;;;;7.53;3.70;;;18.00;99.90;;;;;;4994235;28;20081;-52
2022/08/31 01:06:38;;;;;;;7.18;3.63;;;18.00;99.90;;;;;;4993923;28;20034;-52
2022/08/31 01:09:06;;;;;;;5.30;3.78;;;18.00;99.90;;;;;;4994304;28;20029;-51
2022/08/31 01:11:32;;;;;;;5.97;3.20;;;18.00;99.90;;;;;;4993950;28;20030;-51
2022/08/31 01:13:59;;;;;;;7.28;3.30;;;18.00;99.90;;;;;;4993648;28;20022;-51
2022/08/31 01:16:34;;;;;;;7.25;3.50;;;18.00;99.90;;;;;;4993780;28;20080;-51
2022/08/31 01:19:04;;;;;;;4.80;3.70;;;17.90;99.90;;;;;;4993761;28;20030;-52
2022/08/31 01:21:58;;;;;;;7.05;3.63;;;17.90;99.90;;;;;;4993700;28;20066;-51
2022/08/31 01:24:26;;;;;;;5.47;3.67;;;17.90;99.90;;;;;;4993178;28;20479;-52
2022/08/31 01:26:52;;;;;;;6.65;3.55;;;17.90;99.90;;;;;;4993606;28;20377;-52
2022/08/31 01:29:18;;;;;;;4.78;3.30;;;17.90;99.90;;;;;;4993507;28;20018;-52
2022/08/31 01:31:46;;;;;;;7.30;3.60;;;17.90;99.90;;;;;;4992938;28;20432;-52
2022/08/31 01:34:13;;;;;;;5.25;3.72;;;17.90;99.90;;;;;;4993511;28;20105;-52
2022/08/31 01:36:43;;;;;;;7.63;3.40;;;17.90;99.90;;;;;;4993095;28;20049;-52
2022/08/31 01:39:09;;;;;;;6.85;4.10;;;17.90;99.90;;;;;;4993227;28;20066;-52
2022/08/31 01:41:40;;;;;;;5.03;3.47;;;17.80;99.90;;;;;;4992890;28;20038;-52
2022/08/31 01:44:07;;;;;;;7.15;3.60;;;17.80;99.90;;;;;;4993544;28;20046;-52
2022/08/31 01:46:33;;;;;;;7.93;3.95;;;17.80;99.90;;;;;;4997285;28;20025;-52
2022/08/31 01:48:59;;;;;;;5.30;3.60;;;17.80;99.90;;;;;;4996844;28;20519;-52
2022/08/31 01:51:24;;;;;;;4.78;3.05;;;17.70;99.90;;;;;;4996911;28;20438;-52
2022/08/31 01:53:52;;;;;;;5.32;3.60;;;17.70;99.90;;;;;;4997144;28;20093;-52
2022/08/31 01:56:21;;;;;;;5.53;3.60;;;17.70;99.90;;;;;;4996976;28;20046;-52
2022/08/31 01:58:46;;;;;;;9.27;3.60;;;17.70;99.90;;;;;;4997503;28;20077;-52
2022/08/31 02:01:12;;;;;;;8.00;3.80;;;17.70;99.90;;;;;;4996948;28;20030;-52
2022/08/31 02:03:38;;;;;;;7.97;3.80;;;17.80;99.90;;;;;;4997066;28;20034;-52
2022/08/31 02:06:09;;;;;;;6.20;3.90;;;17.70;99.90;;;;;;4997109;28;20023;-52
2022/08/31 02:08:35;;;;;;;3.95;3.58;;;17.70;99.90;;;;;;4997436;28;20061;-52
2022/08/31 02:11:01;;;;;;;6.90;3.92;;;17.70;99.90;;;;;;4997230;28;20553;-52
2022/08/31 02:13:27;;;;;;;4.05;3.28;;;17.70;99.90;;;;;;4997398;28;20444;-52
2022/08/31 02:15:53;;;;;;;6.68;3.58;;;17.70;99.90;;;;;;4997442;28;20030;-52
2022/08/31 02:18:18;;;;;;;5.72;3.65;;;17.70;99.90;;;;;;4996797;28;20030;-52
2022/08/31 02:20:44;;;;;;;4.68;3.72;;;17.70;99.90;;;;;;4996969;28;20492;-52
2022/08/31 02:23:09;;;;;;;4.70;3.45;;;17.70;99.90;;;;;;4996603;28;20084;-52
2022/08/31 02:25:35;;;;;;;5.10;4.00;;;17.70;99.90;;;;;;4996321;28;20033;-52
2022/08/31 02:28:01;;;;;;;7.28;3.53;;;17.70;99.90;;;;;;4996570;28;20039;-52
2022/08/31 02:30:27;;;;;;;3.72;3.35;;;17.80;99.90;;;;;;4996184;28;20014;-52
2022/08/31 02:32:52;;;;;;;6.72;3.53;;;17.70;99.90;;;;;;4996419;28;20117;-52
2022/08/31 02:35:18;;;;;;;6.68;3.72;;;17.70;99.90;;;;;;4996080;28;20022;-57
2022/08/31 02:37:44;;;;;;;5.40;3.75;;;17.70;99.90;;;;;;4996114;28;20394;-56
2022/08/31 02:40:10;;;;;;;5.30;3.25;;;17.70;99.90;;;;;;4996434;28;20046;-52
2022/08/31 02:42:36;;;;;;;4.70;3.70;;;17.70;99.90;;;;;;4996258;28;20066;-52
2022/08/31 02:45:03;;;;;;;6.75;3.50;;;17.70;99.90;;;;;;4996423;28;20526;-52
2022/08/31 02:47:30;;;;;;;7.80;3.70;;;17.70;99.90;;;;;;4996533;28;20471;-52
2022/08/31 02:49:56;;;;;;;5.55;3.83;;;17.70;99.90;;;;;;4996452;28;20030;-52
2022/08/31 02:52:22;;;;;;;4.63;3.30;;;17.60;99.90;;;;;;4996113;28;20026;-51
2022/08/31 02:54:47;;;;;;;5.60;4.00;;;17.60;99.90;;;;;;4996279;28;20034;-51
2022/08/31 02:57:13;;;;;;;6.00;3.80;;;17.60;99.90;;;;;;4995326;28;20057;-51
2022/08/31 02:59:39;;;;;;;4.80;3.53;;;17.60;99.90;;;;;;4995899;28;20034;-51
2022/08/31 03:02:04;;;;;;;7.47;3.50;;;17.50;99.90;;;;;;4995597;28;20561;-51
2022/08/31 03:04:30;;;;;;;8.75;3.65;;;17.60;99.90;;;;;;4995861;28;20030;-51
2022/08/31 03:06:57;;;;;;;4.45;3.90;;;17.60;99.90;;;;;;4995877;28;20550;-51
2022/08/31 03:09:23;;;;;;;6.25;3.38;;;17.50;99.90;;;;;;4995764;28;20022;-51
2022/08/31 03:11:49;;;;;;;4.18;3.70;;;17.50;99.90;;;;;;4995450;28;20029;-51
2022/08/31 03:14:14;;;;;;;6.28;3.58;;;17.40;99.90;;;;;;4995581;28;20034;-51
2022/08/31 03:16:40;;;;;;;9.93;4.20;;;17.30;99.90;;;;;;4995112;28;20034;-51
2022/08/31 03:19:08;;;;;;;6.15;4.03;;;17.40;99.90;;;;;;4995544;28;20057;-51
2022/08/31 03:21:34;;;;;;;10.80;4.38;;;17.40;99.90;;;;;;4995844;28;20121;-52
2022/08/31 03:24:00;;;;;;;4.00;3.65;;;17.40;99.90;;;;;;4995210;28;20117;-52
2022/08/31 03:26:26;;;;;;;5.80;3.80;;;17.40;99.90;;;;;;4994759;28;20476;-52
2022/08/31 03:28:54;;;;;;;5.32;4.00;;;17.40;99.90;;;;;;4995700;28;20506;-52
2022/08/31 03:31:21;;;;;;;6.25;4.13;;;17.30;99.90;;;;;;4994867;28;20164;-52
2022/08/31 03:33:47;;;;;;;6.80;3.83;;;17.40;99.90;;;;;;4995142;28;20038;-52
2022/08/31 03:36:14;;;;;;;9.20;3.90;;;17.40;99.90;;;;;;4995182;28;20038;-52
2022/08/31 03:38:40;;;;;;;5.35;3.50;;;17.30;99.90;;;;;;4995897;28;20053;-50
2022/08/31 03:41:06;;;;;;;7.22;3.75;;;17.40;99.90;;;;;;4994286;28;20523;-51
2022/08/31 03:43:32;;;;;;;5.85;3.90;;;17.40;99.90;;;;;;4994953;28;20507;-50
2022/08/31 03:45:58;;;;;;;6.20;4.13;;;17.40;99.90;;;;;;4995203;28;20023;-52
2022/08/31 03:48:23;;;;;;;5.10;4.28;;;17.40;99.90;;;;;;4995000;28;20128;-51
2022/08/31 03:50:49;;;;;;;7.38;4.13;;;17.40;99.90;;;;;;4994937;28;20022;-51
2022/08/31 03:53:16;;;;;;;9.38;4.25;;;17.40;99.90;;;;;;4994815;28;20406;-52
2022/08/31 03:55:42;;;;;;;8.48;3.63;;;17.40;99.90;;;;;;4994790;28;20074;-51
2022/08/31 03:58:08;;;;;;;6.20;3.70;;;17.30;99.90;;;;;;4995022;28;20113;-51
2022/08/31 04:00:38;;;;;;;7.75;4.10;;;17.30;99.90;;;;;;4993452;28;20052;-51
2022/08/31 04:03:03;;;;;;;5.65;4.15;;;17.30;99.90;;;;;;4993139;28;20054;-51
2022/08/31 04:05:33;;;;;;;7.72;4.10;;;17.30;99.90;;;;;;4994635;28;20106;-52
2022/08/31 04:07:59;;;;;;;6.20;4.28;;;17.30;99.90;;;;;;4994555;28;20106;-52
2022/08/31 04:10:24;;;;;;;4.63;4.22;;;17.40;99.90;;;;;;4994432;28;20049;-52
2022/08/31 04:12:50;;;;;;;5.00;4.50;;;17.30;99.90;;;;;;4994013;28;20042;-52
2022/08/31 04:15:17;;;;;;;6.30;4.13;;;17.30;99.90;;;;;;4994308;28;20034;-51
2022/08/31 04:17:44;;;;;;;4.75;4.18;;;17.30;99.90;;;;;;4993849;28;20372;-51
2022/08/31 04:20:11;;;;;;;6.50;4.38;;;17.30;99.90;;;;;;4993904;28;20031;-52
2022/08/31 04:22:40;;;;;;;6.07;4.25;;;17.20;99.90;;;;;;4994240;28;20023;-52
2022/08/31 04:25:09;;;;;;;5.53;4.25;;;17.30;99.90;;;;;;4993985;28;20066;-52
2022/08/31 04:27:34;;;;;;;8.63;4.05;;;17.20;99.90;;;;;;4994049;28;20073;-52
2022/08/31 04:30:00;;;;;;;5.43;4.32;;;17.20;99.90;;;;;;4993901;28;20035;-51
2022/08/31 04:32:26;;;;;;;9.05;4.25;;;17.20;99.90;;;;;;4993996;28;20037;-51
2022/08/31 04:34:54;;;;;;;7.40;4.05;;;17.10;99.90;;;;;;4993659;28;20022;-51
2022/08/31 04:37:19;;;;;;;5.53;4.30;;;17.10;99.90;;;;;;4994218;28;20045;-51
2022/08/31 04:39:45;;;;;;;5.25;4.20;;;17.00;99.90;;;;;;4994332;28;20030;-52
2022/08/31 04:42:12;;;;;;;5.38;4.10;;;17.00;99.90;;;;;;4994153;28;20031;-51
2022/08/31 04:44:38;;;;;;;5.63;4.40;;;17.10;99.90;;;;;;4993749;28;20030;-51
2022/08/31 04:47:03;;;;;;;5.78;4.40;;;17.00;99.90;;;;;;4993096;28;20026;-50
2022/08/31 04:49:29;;;;;;;5.10;4.13;;;16.90;99.90;;;;;;4993380;28;20034;-51
2022/08/31 04:51:54;;;;;;;7.68;4.13;;;16.90;99.90;;;;;;4993345;28;20037;-51
2022/08/31 04:54:20;;;;;;;7.15;4.22;;;16.90;99.90;;;;;;4993690;28;20503;-52
2022/08/31 04:56:46;;;;;;;4.75;4.28;;;16.90;99.90;;;;;;4993015;28;20046;-52
2022/08/31 04:59:17;;;;;;;4.95;4.07;;;16.90;99.90;;;;;;4993480;28;20206;-52
2022/08/31 05:01:44;;;;;;;8.93;4.13;;;16.90;99.90;;;;;;4993785;28;20156;-51
2022/08/31 05:04:12;;;;;;;6.03;3.55;;;16.90;99.90;;;;;;4993183;28;20031;-51
2022/08/31 05:06:40;;;;;;;6.53;4.57;;;16.90;99.90;;;;;;4993216;28;20019;-51
2022/08/31 05:09:09;;;;;;;5.85;4.28;;;16.90;99.90;;;;;;4993762;28;20054;-52
2022/08/31 05:11:34;;;;;;;6.68;4.30;;;16.90;99.90;;;;;;4993581;28;20034;-51
2022/08/31 05:14:02;;;;;;;9.50;4.10;;;16.90;99.90;;;;;;4993035;28;20030;-51
2022/08/31 05:16:32;;;;;;;5.65;4.20;;;16.90;99.90;;;;;;4993331;28;20096;-51
2022/08/31 05:18:59;;;;;;;6.70;4.70;;;16.90;99.90;;;;;;4992384;28;20026;-52
2022/08/31 05:21:32;;;;;;;6.20;4.10;;;17.00;99.90;;;;;;4993088;28;20094;-51
2022/08/31 05:24:00;;;;;;;5.13;3.85;;;17.00;99.90;;;;;;4992678;28;20026;-51
2022/08/31 05:26:29;;;;;;;5.88;4.10;;;17.00;99.90;;;;;;4993010;28;20113;-52
2022/08/31 05:28:56;;;;;;;10.60;3.83;;;17.00;99.90;;;;;;4992945;28;20492;-51
2022/08/31 05:31:22;;;;;;;5.85;3.90;;;17.00;99.90;;;;;;4993070;28;20073;-50
2022/08/31 05:33:49;;;;;;;4.22;3.83;;;17.00;99.90;;;;;;4992367;28;20038;-51
2022/08/31 05:36:16;;;;;;;6.10;3.97;;;17.00;99.90;;;;;;4992913;28;20077;-53
2022/08/31 05:38:42;;;;;;;9.07;3.92;;;17.00;99.90;;;;;;4993024;28;20261;-51
2022/08/31 05:41:09;;;;;;;5.00;3.90;;;17.00;99.90;;;;;;4992889;28;20027;-52
2022/08/31 05:43:35;;;;;;;7.53;4.38;;;17.00;99.90;;;;;;4993319;28;20070;-52
2022/08/31 05:46:12;;;;;;;9.60;4.38;;;17.10;99.90;;;;;;4992901;28;20395;-51
2022/08/31 05:48:38;;;;;;;5.47;3.80;;;17.00;99.90;;;;;;4993006;28;20089;-51
2022/08/31 05:51:07;;;;;;;6.10;4.40;;;17.10;99.90;;;;;;4991945;28;20026;-50
2022/08/31 05:53:34;;;;;;;6.35;4.15;;;17.00;99.90;;;;;;4992009;28;20035;-50
2022/08/31 05:56:15;;;;;;;8.20;4.07;;;17.00;99.90;;;;;;4991988;28;20050;-50
2022/08/31 05:58:43;;;;;;;9.05;4.43;;;17.10;99.90;;;;;;4992315;28;20030;-50
2022/08/31 06:01:23;;;;;;;6.50;4.50;;;17.20;99.90;;;;;;4992526;28;20505;-50
2022/08/31 06:03:50;;;;;;;9.20;4.47;;;17.30;99.90;;;;;;4992132;28;20381;-51
2022/08/31 06:06:16;;;;;;;5.78;4.10;;;17.30;99.90;;;;;;4992614;28;20034;-51
2022/08/31 06:08:43;;;;;;;9.93;4.72;;;17.50;99.90;;;;;;4992292;28;20026;-52
2022/08/31 06:11:18;;;;;;;5.60;4.47;;;17.50;99.90;;;;;;4993224;28;20061;-52
2022/08/31 06:13:44;;;;;;;7.80;4.32;;;17.50;99.90;;;;;;4992042;28;20049;-51
2022/08/31 06:16:10;;;;;;;7.03;4.55;;;17.50;99.90;;;;;;4991400;28;20030;-51
2022/08/31 06:18:37;;;;;;;7.75;4.20;;;17.50;99.90;;;;;;4992756;28;20125;-52
2022/08/31 06:21:08;;;;;;;7.65;3.90;;;17.60;99.90;;;;;;4992730;28;20026;-52
2022/08/31 06:23:38;;;;;;;9.27;4.40;;;17.60;99.90;;;;;;4990968;28;20074;-52
2022/08/31 06:26:11;;;;;;;8.25;4.50;;;17.70;99.90;;;;;;4990010;28;20023;-51
2022/08/31 06:28:38;;;;;;;8.43;3.92;;;17.90;99.90;;;;;;4993023;28;20093;-51
2022/08/31 06:31:10;;;;;;;4.53;3.90;;;18.00;99.90;;;;;;4992642;28;20030;-51
2022/08/31 06:33:37;;;;;;;7.28;4.40;;;18.00;99.90;;;;;;4995429;28;20454;-52
2022/08/31 06:36:07;;;;;;;6.70;4.40;;;18.00;99.90;;;;;;4993891;28;20530;-52
2022/08/31 06:38:33;;;;;;;6.35;4.05;;;18.10;99.90;;;;;;4995259;28;20032;-51
2022/08/31 06:40:58;;;;;;;4.65;3.95;;;18.10;99.90;;;;;;4995059;28;20034;-52
2022/08/31 06:43:24;;;;;;;6.57;3.90;;;18.10;99.90;;;;;;4992151;28;20182;-52
2022/08/31 06:45:50;;;;;;;6.22;3.90;;;18.20;99.90;;;;;;4994187;28;20042;-51
2022/08/31 06:48:16;;;;;;;6.55;4.40;;;18.10;99.90;;;;;;4993095;28;20027;-52
2022/08/31 06:50:41;;;;;;;5.72;4.45;;;18.10;99.90;;;;;;4993026;28;20138;-51
2022/08/31 06:53:08;;;;;;;8.05;4.28;;;18.10;99.90;;;;;;4993481;28;20022;-52
2022/08/31 06:55:34;;;;;;;7.22;4.53;;;18.20;99.90;;;;;;4994831;28;20030;-52
2022/08/31 06:57:59;;;;;;;5.32;4.22;;;18.40;99.90;;;;;;4995231;28;20045;-52
2022/08/31 07:00:25;;;;;;;8.57;4.55;;;18.60;99.90;;;;;;4996008;28;20039;-52
2022/08/31 07:02:51;;;;;;;5.85;4.10;;;18.70;99.90;;;;;;4994052;28;20034;-52
2022/08/31 07:05:16;;;;;;;6.40;3.95;;;18.80;99.90;;;;;;4994909;28;20026;-51
2022/08/31 07:07:42;;;;;;;7.45;4.13;;;18.70;99.90;;;;;;4995628;28;20125;-52
2022/08/31 07:10:09;;;;;;;4.75;4.00;;;18.60;99.90;;;;;;4995179;28;20018;-51
2022/08/31 07:12:35;;;;;;;4.57;3.97;;;18.70;99.90;;;;;;4994137;28;20026;-51
2022/08/31 07:15:00;;;;;;;6.43;3.92;;;18.60;99.90;;;;;;4987750;28;20495;-52
2022/08/31 07:17:26;;;;;;;9.40;4.30;;;18.70;99.90;;;;;;4990282;28;20034;-52
2022/08/31 07:19:52;;;;;;;6.70;4.30;;;18.90;99.90;;;;;;4993644;28;20085;-52
2022/08/31 07:22:17;;;;;;;6.35;4.43;;;18.90;99.90;;;;;;4985786;28;20035;-51
2022/08/31 07:24:43;;;;;;;7.75;4.13;;;18.90;99.90;;;;;;4992725;28;20058;-51
2022/08/31 07:27:15;;;;;;;7.53;4.40;;;18.90;99.90;;;;;;4991802;28;20029;-51
2022/08/31 07:29:41;;;;;;;7.53;4.00;;;19.20;99.90;;;;;;4993326;28;20034;-51
2022/08/31 07:32:12;;;;;;;5.20;3.90;;;19.60;99.90;;;;;;4993283;28;20277;-51
2022/08/31 07:34:38;;;;;;;5.78;3.40;;;19.90;99.90;;;;;;4990024;28;20110;-52
2022/08/31 07:42:38;;;;;;;4.22;3.80;;;20.00;99.90;;;;;;4990679;28;20506;-53
2022/08/31 07:45:07;;;;;;;6.32;3.85;;;20.20;99.90;;;;;;4990849;28;20042;-50
2022/08/31 07:47:32;;;;;;;5.30;3.53;;;20.50;99.90;;;;;;4986846;28;20382;-50
2022/08/31 07:49:59;;;;;;;6.30;3.45;;;20.50;99.90;;;;;;4982976;28;20027;-53
2022/08/31 07:52:34;;;;;;;14.18;3.75;;;21.00;99.90;;;;;;4984299;28;20030;-51
2022/08/31 07:55:06;;;;;;;5.93;3.33;;;22.00;99.90;;;;;;4984605;28;20036;-51
2022/08/31 07:57:43;;;;;;;10.57;3.08;;;22.60;99.90;;;;;;4983696;28;20047;-53
2022/08/31 08:00:17;;;;;;;5.10;3.25;;;23.60;99.90;;;;;;4987272;28;20029;-53
2022/08/31 08:02:46;;;;;;;4.57;3.05;;;24.10;99.90;;;;;;4985846;28;20034;-53
2022/08/31 08:05:19;;;;;;;3.47;2.60;;;24.60;99.90;;;;;;4985331;28;20062;-53
2022/08/31 08:07:47;;;;;;;5.15;2.78;;;25.10;99.90;;;;;;4989194;28;20035;-53
2022/08/31 08:10:14;;;;;;;2.95;2.65;;;25.30;99.90;;;;;;4983592;28;20052;-53
2022/08/31 08:12:45;;;;;;;5.10;2.78;;;25.30;99.90;;;;;;4986184;28;20129;-53
2022/08/31 08:15:11;;;;;;;7.27;2.83;;;24.90;99.90;;;;;;4985327;28;20042;-53
2022/08/31 08:17:37;;;;;;;3.85;2.60;;;25.40;99.90;;;;;;4982511;28;20503;-53
2022/08/31 08:20:05;;;;;;;4.13;2.67;;;25.00;99.90;;;;;;4981571;28;20522;-53
2022/08/31 08:22:31;;;;;;;4.35;2.78;;;25.10;99.90;;;;;;4984000;28;20034;-53
2022/08/31 08:24:58;;;;;;;6.22;2.67;;;25.60;99.90;;;;;;4980510;28;20019;-53
2022/08/31 08:27:24;;;;;;;3.45;2.70;;;26.20;99.90;;;;;;4983826;28;20208;-52
2022/08/31 08:29:50;;;;;;;3.75;2.60;;;26.40;99.00;;;;;;4982802;28;20089;-53
2022/08/31 08:32:17;;;;;;;4.35;2.72;;;26.70;98.20;;;;;;4989624;28;20069;-53
2022/08/31 08:34:44;;;;;;;7.50;2.88;;;26.80;97.70;;;;;;4983947;28;20081;-53
2022/08/31 08:37:10;;;;;;;5.20;2.58;;;26.50;98.10;;;;;;4986715;28;20031;-53
2022/08/31 08:39:37;;;;;;;4.55;2.78;;;27.00;97.70;;;;;;4988809;28;20077;-53
2022/08/31 08:42:07;;;;;;;6.40;2.88;;;26.80;96.60;;;;;;4988629;28;20065;-53
2022/08/31 08:44:34;;;;;;;4.68;3.20;;;26.50;97.80;;;;;;4986329;28;20468;-53
2022/08/31 08:47:04;;;;;;;4.85;2.80;;;26.00;98.10;;;;;;4981450;28;20188;-53
2022/08/31 08:49:44;;;;;;;6.53;3.25;;;25.90;98.50;;;;;;4987097;28;20030;-53
2022/08/31 08:52:15;;;;;;;7.88;3.22;;;26.00;98.50;;;;;;4988271;28;20045;-53
2022/08/31 08:54:44;;;;;;;6.60;2.97;;;26.60;97.80;;;;;;4986018;28;20026;-53
2022/08/31 08:57:33;;;;;;;5.40;3.00;;;27.20;96.20;;;;;;4985628;28;20043;-53
2022/08/31 09:00:06;;;;;;;7.40;3.55;;;27.10;96.00;;;;;;4984368;28;20032;-53
2022/08/31 09:02:42;;;;;;;3.63;2.92;;;27.00;95.90;;;;;;4984977;28;20575;-53
2022/08/31 09:05:13;;;;;;;6.43;2.97;;;27.30;95.80;;;;;;4988587;28;20076;-54
2022/08/31 09:08:04;;;;;;;4.03;3.03;;;27.80;94.70;;;;;;4990556;28;20030;-53
2022/08/31 09:10:34;;;;;;;6.25;2.90;;;28.00;93.50;;;;;;4981666;28;20149;-54
2022/08/31 09:13:00;;;;;;;5.97;2.88;;;27.50;94.60;;;;;;4982105;28;20131;-53
2022/08/31 09:16:03;;;;;;;7.38;2.85;;;27.40;94.40;;;;;;4988954;28;20496;-52
2022/08/31 09:18:48;;;;;;;6.05;3.30;;;27.50;94.20;;;;;;4987974;28;20054;-52
2022/08/31 09:21:24;;;;;;;6.53;3.05;;;27.60;93.50;;;;;;4986832;28;20034;-52
2022/08/31 09:24:00;;;;;;;4.07;2.80;;;27.80;93.90;;;;;;4989319;28;20416;-52
2022/08/31 09:26:29;;;;;;;5.93;3.10;;;28.30;93.10;;;;;;4989536;28;20033;-52
2022/08/31 09:28:55;;;;;;;8.85;2.85;;;28.40;91.80;;;;;;4988820;28;20041;-53
2022/08/31 09:31:40;;;;;;;6.07;2.75;;;28.50;92.10;;;;;;4985414;28;20030;-53
2022/08/31 09:34:24;;;;;;;5.82;3.08;;;28.50;91.80;;;;;;4986194;28;20089;-53
2022/08/31 09:36:50;;;;;;;4.78;2.70;;;28.80;91.60;;;;;;4984625;28;20058;-53
2022/08/31 09:39:28;;;;;;;6.88;3.08;;;28.50;91.30;;;;;;5004845;28;20577;-53
2022/08/31 09:42:13;;;;;;;4.50;2.35;;;28.40;91.50;;;;;;4987719;28;20030;-52
2022/08/31 09:44:41;;;;;;;7.07;3.10;;;28.00;91.90;;;;;;4984783;28;20026;-52
2022/08/31 09:47:47;;;;;;;4.95;2.72;;;27.80;92.00;;;;;;4988124;28;20023;-53
2022/08/31 09:50:30;;;;;;;6.43;3.00;;;27.40;92.50;;;;;;4988420;28;20026;-53
2022/08/31 09:56:02;;;;;;;6.75;3.03;;;26.60;94.30;;;;;;4982895;28;20045;-52
2022/08/31 09:58:29;;;;;;;10.88;2.85;;;26.90;93.50;;;;;;4981368;28;20041;-53
2022/08/31 10:00:55;;;;;;;5.68;2.90;;;27.10;93.40;;;;;;4983792;28;20035;-52
2022/08/31 10:03:27;;;;;;;9.55;2.90;;;27.30;93.00;;;;;;4988084;28;20023;-53
2022/08/31 10:05:54;;;;;;;6.90;2.47;;;27.80;92.10;;;;;;4991443;28;20022;-53
2022/08/31 10:08:45;;;;;;;4.40;2.35;;;28.40;91.50;;;;;;4994244;28;20042;-53
2022/08/31 10:11:14;;;;;;;5.60;2.40;;;28.40;90.90;;;;;;4994368;28;20038;-53
2022/08/31 10:14:03;;;;;;;4.40;2.63;;;28.80;90.10;;;;;;4993995;28;20450;-53
2022/08/31 10:16:46;;;;;;;6.03;2.80;;;28.70;90.30;;;;;;4994568;28;20026;-53
2022/08/31 10:19:21;;;;;;;9.65;2.47;;;28.90;89.00;;;;;;4994885;28;20034;-53
2022/08/31 10:21:58;;;;;;;6.20;2.90;;;29.10;88.10;;;;;;4995369;28;20030;-53
2022/08/31 10:24:45;;;;;;;10.35;3.10;;;28.60;89.20;;;;;;4995557;28;20475;-53
2022/08/31 10:27:37;;;;;;;8.32;2.85;;;28.80;89.20;;;;;;4995560;28;20060;-53
2022/08/31 10:30:23;;;;;;;6.55;2.85;;;28.70;89.00;;;;;;4996886;28;20053;-53
2022/08/31 10:33:03;;;;;;;7.68;2.50;;;28.40;89.40;;;;;;4996402;28;20058;-53
2022/08/31 10:35:43;;;;;;;5.57;2.88;;;28.40;90.40;;;;;;4995703;28;20026;-53
2022/08/31 10:38:22;;;;;;;7.60;2.70;;;28.80;88.10;;;;;;4995816;28;20556;-53
2022/08/31 10:41:09;;;;;;;6.07;2.60;;;28.60;89.30;;;;;;4994079;28;20030;-54
2022/08/31 10:43:57;;;;;;;5.38;3.03;;;29.00;87.70;;;;;;4994876;28;20034;-53
2022/08/31 10:46:23;;;;;;;5.43;2.72;;;28.70;87.70;;;;;;4995364;28;20526;-53
2022/08/31 10:48:53;;;;;;;7.60;3.60;;;28.50;88.60;;;;;;4995250;28;20026;-53
2022/08/31 10:51:28;;;;;;;4.75;2.85;;;28.50;88.90;;;;;;4995219;28;20482;-53
2022/08/31 10:54:27;;;;;;;7.47;2.47;;;29.00;87.60;;;;;;4994729;28;20038;-54
2022/08/31 10:56:57;;;;;;;5.03;2.53;;;30.00;84.60;;;;;;4994465;28;20111;-54
2022/08/31 11:00:00;;;;;;;7.95;2.92;;;29.50;85.50;;;;;;4994844;28;20065;-54
2022/08/31 11:02:50;;;;;;;11.65;3.10;;;29.70;83.90;;;;;;4994844;28;20068;-54
2022/08/31 11:05:32;;;;;;;8.48;3.25;;;29.80;84.20;;;;;;4994703;28;20495;-54
2022/08/31 11:08:25;;;;;;;9.63;2.80;;;30.10;82.90;;;;;;4995338;28;20042;-52
2022/08/31 11:10:53;;;;;;;5.70;2.38;;;30.20;82.30;;;;;;4994739;28;20026;-52
2022/08/31 11:13:37;;;;;;;6.30;2.80;;;30.50;82.10;;;;;;4995054;28;20034;-54
2022/08/31 11:16:15;;;;;;;3.42;2.60;;;30.20;81.70;;;;;;4994600;28;20570;-54
2022/08/31 11:19:06;;;;;;;8.52;2.85;;;30.50;80.90;;;;;;4994069;28;20057;-54
2022/08/31 11:22:09;;;;;;;8.95;3.45;;;30.90;79.50;;;;;;4994251;28;20153;-54
2022/08/31 11:24:47;;;;;;;9.45;3.10;;;30.10;80.20;;;;;;4994722;28;20438;-54
2022/08/31 11:27:17;;;;;;;6.65;2.90;;;30.50;81.00;;;;;;4994597;28;20708;-54
2022/08/31 11:30:06;;;;;;;7.85;3.10;;;30.40;80.10;;;;;;4992480;28;20085;-54
2022/08/31 11:32:49;;;;;;;6.13;2.85;;;30.90;79.40;;;;;;4989028;28;20026;-54
2022/08/31 11:36:07;;;;;;;7.57;2.90;;;31.20;78.10;;;;;;4992225;28;20031;-54
2022/08/31 11:38:53;;;;;;;6.97;3.13;;;31.30;77.70;;;;;;4987833;28;20034;-54
2022/08/31 11:41:30;;;;;;;8.68;3.67;;;31.10;77.20;;;;;;4985397;28;20463;-54
2022/08/31 11:43:56;;;;;;;11.90;3.50;;;31.10;77.30;;;;;;4987620;28;20487;-54
2022/08/31 11:46:25;;;;;;;4.57;2.97;;;31.50;75.60;;;;;;4985071;28;20098;-50
2022/08/31 11:48:52;;;;;;;6.03;3.40;;;30.70;76.80;;;;;;4993127;28;20042;-50
2022/08/31 11:51:40;;;;;;;6.47;3.05;;;30.10;78.80;;;;;;4993946;28;20541;-51
2022/08/31 11:54:40;;;;;;;6.53;2.80;;;30.20;79.10;;;;;;4992222;28;20255;-50
2022/08/31 11:57:14;;;;;;;11.77;3.38;;;29.90;80.10;;;;;;4988482;28;20094;-51
2022/08/31 11:59:51;;;;;;;9.70;3.33;;;29.30;80.50;;;;;;4990022;28;20038;-51
2022/08/31 12:02:21;;;;;;;5.95;3.05;;;28.70;82.90;;;;;;4991792;28;20033;-53
2022/08/31 12:04:51;;;;;;;6.82;3.10;;;29.00;82.60;;;;;;4985553;28;20515;-51
2022/08/31 12:07:30;;;;;;;6.35;3.45;;;30.00;80.90;;;;;;4974448;28;20113;-51
2022/08/31 12:10:10;;;;;;;7.55;3.42;;;30.30;78.90;;;;;;4988020;28;20046;-52
2022/08/31 12:13:17;;;;;;;9.57;3.38;;;30.90;77.70;;;;;;4993440;28;20042;-52
2022/08/31 12:16:02;;;;;;;5.35;3.08;;;31.30;76.40;;;;;;4986297;28;20350;-52
2022/08/31 12:18:43;;;;;;;5.63;2.78;;;31.30;76.10;;;;;;4993573;28;20028;-53
2022/08/31 12:24:23;;;;;;;9.27;3.35;;;31.90;73.80;;;;;;4993382;28;20399;-53
2022/08/31 12:26:58;;;;;;;6.70;3.60;;;31.60;74.90;;;;;;4994091;28;20036;-53
2022/08/31 12:29:23;;;;;;;9.95;3.67;;;31.70;74.10;;;;;;4992908;28;20027;-53
2022/08/31 12:32:12;;;;;;;5.63;3.40;;;31.60;74.30;;;;;;4992792;28;20026;-52
2022/08/31 12:34:47;;;;;;;10.73;3.70;;;31.10;75.00;;;;;;4993299;28;20153;-52
2022/08/31 12:37:28;;;;;;;7.25;2.85;;;31.00;75.70;;;;;;4993643;28;20038;-54
2022/08/31 12:43:45;;;;;;;4.55;3.20;;;31.90;73.40;;;;;;4993377;28;20073;-53
2022/08/31 12:46:46;;;;;;;6.13;3.13;;;32.20;73.30;;;;;;4992858;28;20037;-53
2022/08/31 12:49:20;;;;;;;8.02;2.97;;;32.50;72.50;;;;;;4984308;28;20038;-53
2022/08/31 12:51:57;;;;;;;8.25;3.40;;;32.70;72.30;;;;;;4992808;28;20105;-53
2022/08/31 12:54:41;;;;;;;9.70;3.38;;;32.50;71.30;;;;;;4992806;28;20104;-53
2022/08/31 12:57:32;;;;;;;5.07;3.15;;;32.00;72.60;;;;;;4992792;28;20054;-53
2022/08/31 13:00:29;;;;;;;8.40;2.97;;;32.10;72.80;;;;;;4993679;28;20081;-53
2022/08/31 13:03:15;;;;;;;6.53;2.85;;;32.90;71.80;;;;;;4993225;28;20027;-53
2022/08/31 13:05:40;;;;;;;4.75;2.85;;;33.00;70.70;;;;;;4992944;28;20027;-55
2022/08/31 13:08:20;;;;;;;13.15;3.47;;;33.10;69.80;;;;;;4992987;28;20027;-54
2022/08/31 13:11:29;;;;;;;6.50;3.20;;;33.00;70.30;;;;;;4992683;28;20113;-54
2022/08/31 13:14:10;;;;;;;6.22;3.35;;;32.90;70.00;;;;;;4992601;28;20040;-54
2022/08/31 13:16:45;;;;;;;6.70;3.10;;;32.80;70.40;;;;;;4992706;28;20112;-53
2022/08/31 13:19:24;;;;;;;8.48;4.78;;;32.40;71.10;;;;;;4992562;28;20030;-53
2022/08/31 13:22:15;;;;;;;11.52;3.70;;;32.90;70.40;;;;;;4992758;28;20121;-53
2022/08/31 13:24:43;;;;;;;5.35;3.13;;;33.40;69.80;;;;;;4992208;28;20084;-53
2022/08/31 13:27:11;;;;;;;6.97;2.60;;;32.60;70.00;;;;;;4990433;28;20042;-53